Time;durP1;ratioP1;P1;durP2;ratioP2;P2;SDS_P1;SDS_P2;PMS_P1;PMS_P2;Temp;Humidity;BMP_temperature;BMP_pressure;BME280_temperature;BME280_humidity;BME280_pressure;Samples;Min_cycle;Max_cycle;Signal;HPM_P1;HPM_P2
2022/06/28 00:02:06;;;;;;;12.50;3.83;;;;;;;24.30;40.01;100878.94;4993782;28;20033;-90
2022/06/28 00:04:32;;;;;;;14.75;3.67;;;;;;;24.13;40.61;100877.00;4992790;28;20030;-90
2022/06/28 00:06:59;;;;;;;11.57;3.17;;;;;;;24.13;40.68;100874.22;5010000;28;20022;-89
2022/06/28 00:09:27;;;;;;;10.05;2.63;;;;;;;24.37;39.93;100861.41;4993708;28;20030;-89
2022/06/28 00:11:53;;;;;;;15.32;3.13;;;;;;;24.34;40.36;100851.84;4993235;28;20030;-90
2022/06/28 00:17:04;;;;;;;11.10;3.00;;;;;;;24.24;40.68;100854.63;4994574;28;20093;-91
2022/06/28 00:19:30;;;;;;;12.95;3.03;;;;;;;24.18;41.02;100859.88;4981305;28;20038;-91
2022/06/28 00:21:56;;;;;;;9.10;2.90;;;;;;;24.17;40.83;100849.06;4990331;28;20101;-90
2022/06/28 00:24:23;;;;;;;19.35;4.07;;;;;;;23.96;41.81;100844.38;4990064;28;20371;-90
2022/06/28 00:26:48;;;;;;;11.38;2.75;;;;;;;23.96;41.52;100841.56;4989765;28;20087;-89
2022/06/28 00:29:15;;;;;;;14.50;4.05;;;;;;;24.03;41.23;100842.34;4990265;28;20042;-90
2022/06/28 00:31:41;;;;;;;11.90;3.22;;;;;;;23.95;41.36;100831.59;4989955;28;20034;-89
2022/06/28 00:34:07;;;;;;;8.73;2.67;;;;;;;23.92;41.81;100838.78;4989797;28;20042;-89
2022/06/28 00:36:33;;;;;;;12.95;3.50;;;;;;;23.93;41.60;100832.00;4989972;28;20113;-90
2022/06/28 00:38:59;;;;;;;10.02;3.38;;;;;;;23.97;41.44;100827.22;4989809;28;20027;-91
2022/06/28 00:41:26;;;;;;;11.07;2.67;;;;;;;23.88;42.06;100831.59;4973695;28;20031;-88
2022/06/28 00:43:52;;;;;;;15.80;3.08;;;;;;;23.93;41.77;100822.81;4989900;28;20037;-92
2022/06/28 00:46:18;;;;;;;12.68;2.90;;;;;;;24.08;41.62;100827.16;4989926;28;20078;-88
2022/06/28 00:48:44;;;;;;;17.35;3.25;;;;;;;24.01;41.45;100824.41;4989934;28;20524;-90
2022/06/28 00:51:09;;;;;;;15.70;3.25;;;;;;;23.82;41.96;100824.84;4989575;28;20034;-90
2022/06/28 00:53:35;;;;;;;17.10;3.63;;;;;;;23.68;42.33;100815.31;4989710;28;20158;-90
2022/06/28 00:56:01;;;;;;;11.50;3.35;;;;;;;23.64;42.29;100825.66;4989722;28;20118;-89
2022/06/28 00:58:26;;;;;;;10.82;3.00;;;;;;;23.93;41.87;100817.25;4989981;28;20031;-88
2022/06/28 01:00:52;;;;;;;10.27;2.92;;;;;;;24.00;41.62;100822.81;4989737;28;20417;-91
2022/06/28 01:03:20;;;;;;;12.70;3.53;;;;;;;23.80;41.72;100814.06;4989715;28;20114;-88
2022/06/28 01:05:46;;;;;;;13.57;3.58;;;;;;;24.14;41.22;100827.56;4989832;28;20029;-90
2022/06/28 01:08:12;;;;;;;9.90;2.47;;;;;;;24.10;41.19;100821.97;4989980;28;20026;-91
2022/06/28 01:10:39;;;;;;;11.57;3.47;;;;;;;24.20;41.19;100817.56;4989511;28;20034;-88
2022/06/28 01:13:06;;;;;;;9.30;3.05;;;;;;;24.20;41.05;100812.78;4989571;28;20035;-87
2022/06/28 01:15:32;;;;;;;11.75;2.75;;;;;;;24.06;41.31;100815.63;4973934;28;20069;-89
2022/06/28 01:18:02;;;;;;;10.20;3.20;;;;;;;24.10;41.13;100810.81;4993424;28;20105;-89
2022/06/28 01:20:27;;;;;;;;;;;;;;;24.21;41.31;100811.59;4993385;28;20384;-91
2022/06/28 01:22:56;;;;;;;7.07;2.55;;;;;;;24.00;41.67;100817.22;4993142;28;19938;-91
2022/06/28 01:25:23;;;;;;;11.95;3.05;;;;;;;24.14;41.59;100808.03;4992898;28;20125;-90
2022/06/28 01:27:51;;;;;;;8.80;2.53;;;;;;;24.74;40.01;100798.59;4976635;28;20047;-90
2022/06/28 01:30:17;;;;;;;11.65;3.05;;;;;;;24.14;41.32;100797.66;4992906;28;20042;-89
2022/06/28 01:32:43;;;;;;;10.25;3.47;;;;;;;23.45;43.43;100803.75;4976482;28;20027;-88
2022/06/28 01:35:08;;;;;;;7.82;2.15;;;;;;;23.85;42.26;100790.56;4993071;28;20060;-92
2022/06/28 01:37:35;;;;;;;12.07;2.58;;;;;;;23.99;41.93;100784.94;4993028;28;20391;-91
2022/06/28 01:40:00;;;;;;;8.65;2.33;;;;;;;24.04;41.95;100778.94;4992663;28;20529;-91
2022/06/28 01:42:29;;;;;;;11.15;2.67;;;;;;;23.84;42.25;100772.22;4992654;28;20060;-92
2022/06/28 01:44:56;;;;;;;16.52;3.15;;;;;;;23.90;42.58;100774.22;4992687;28;20031;-88
2022/06/28 01:47:24;;;;;;;9.82;2.58;;;;;;;23.91;42.35;100775.78;4976369;28;20035;-88
2022/06/28 01:49:50;;;;;;;9.45;2.45;;;;;;;23.92;42.67;100776.59;4992286;28;20122;-91
2022/06/28 01:52:16;;;;;;;12.02;3.25;;;;;;;23.92;42.17;100771.00;4976327;28;20173;-91
2022/06/28 01:54:42;;;;;;;8.85;2.58;;;;;;;23.76;42.88;100763.88;4992551;28;20035;-89
2022/06/28 01:57:08;;;;;;;8.40;2.70;;;;;;;24.34;41.75;100770.88;4990852;28;20117;-89
2022/06/28 01:59:36;;;;;;;7.57;2.10;;;;;;;24.55;41.12;100757.97;4976427;28;20066;-91
2022/06/28 02:02:01;;;;;;;12.32;2.72;;;;;;;24.52;40.99;100753.22;4976140;28;20034;-93
2022/06/28 02:04:29;;;;;;;8.60;3.50;;;;;;;24.38;41.61;100750.50;4976150;28;20038;-91
2022/06/28 02:06:55;;;;;;;11.15;2.72;;;;;;;24.54;40.88;100748.03;4976122;28;20030;-90
2022/06/28 02:09:21;;;;;;;8.82;2.78;;;;;;;24.05;42.19;100749.84;4976211;28;20027;-89
2022/06/28 02:11:47;;;;;;;8.70;2.78;;;;;;;23.85;42.55;100741.13;4975854;28;20078;-89
2022/06/28 02:14:13;;;;;;;7.43;2.03;;;;;;;23.73;43.05;100738.78;4975849;28;20157;-92
2022/06/28 02:16:39;;;;;;;8.05;2.35;;;;;;;23.52;43.92;100740.41;4975872;28;20033;-90
2022/06/28 02:19:04;;;;;;;9.32;2.50;;;;;;;23.76;43.01;100741.56;4974818;28;20038;-92
2022/06/28 02:21:42;;;;;;;12.18;2.80;;;;;;;23.44;44.19;100740.81;4974728;28;20445;-87
2022/06/28 02:24:08;;;;;;;7.53;2.30;;;;;;;23.85;42.88;100741.13;4991738;28;20035;-90
2022/06/28 02:26:34;;;;;;;3.08;1.60;;;;;;;23.73;43.03;100734.00;4991368;28;20125;-92
2022/06/28 02:29:01;;;;;;;9.10;2.25;;;;;;;23.65;43.66;100732.41;4992048;28;20090;-92
2022/06/28 02:31:27;;;;;;;8.50;2.03;;;;;;;23.95;42.59;100731.13;4991634;28;20039;-91
2022/06/28 02:33:53;;;;;;;10.35;2.40;;;;;;;24.10;42.31;100724.28;4991828;28;20023;-91
2022/06/28 02:41:55;;;;;;;8.18;2.05;;;;;;;23.99;42.62;100709.59;4975504;28;20034;-90
2022/06/28 02:44:21;;;;;;;10.73;2.30;;;;;;;23.87;42.76;100712.81;4991494;28;20030;-88
2022/06/28 02:46:47;;;;;;;6.45;1.98;;;;;;;24.07;42.48;100711.16;4975340;28;20473;-90
2022/06/28 02:49:14;;;;;;;5.57;2.00;;;;;;;23.96;42.66;100716.78;4991600;28;20026;-92
2022/06/28 02:51:41;;;;;;;5.20;1.85;;;;;;;24.18;42.54;100719.47;4991425;28;20027;-91
2022/06/28 02:54:07;;;;;;;5.40;1.73;;;;;;;24.04;42.54;100715.56;4975195;28;20031;-90
2022/06/28 02:56:32;;;;;;;5.68;1.63;;;;;;;24.17;42.16;100704.72;4991527;28;20026;-91
2022/06/28 02:58:58;;;;;;;6.47;2.00;;;;;;;24.32;42.23;100705.44;4991524;28;20023;-92
2022/06/28 03:01:23;;;;;;;6.47;1.58;;;;;;;24.25;42.31;100706.25;4991536;28;20053;-91
2022/06/28 03:03:49;;;;;;;4.47;1.30;;;;;;;24.22;42.42;100698.72;4991540;28;20100;-89
2022/06/28 03:06:15;;;;;;;5.70;1.98;;;;;;;24.18;42.49;100694.34;4975141;28;20023;-92
2022/06/28 03:08:41;;;;;;;6.35;1.80;;;;;;;24.23;42.09;100694.72;4991375;28;20033;-89
2022/06/28 03:11:06;;;;;;;5.95;1.38;;;;;;;24.14;42.83;100696.38;4974842;28;20515;-92
2022/06/28 03:13:32;;;;;;;8.40;1.67;;;;;;;24.13;42.38;100684.41;4991358;28;20113;-92
2022/06/28 03:15:57;;;;;;;3.95;1.58;;;;;;;24.18;42.32;100692.38;4991365;28;20385;-89
2022/06/28 03:18:23;;;;;;;5.57;1.98;;;;;;;24.18;42.44;100681.19;4991397;28;20023;-91
2022/06/28 03:20:48;;;;;;;4.63;1.60;;;;;;;24.26;42.42;100685.53;4991193;28;20430;-90
2022/06/28 03:23:14;;;;;;;4.22;1.35;;;;;;;24.29;42.21;100667.97;4991158;28;20034;-92
2022/06/28 03:25:40;;;;;;;8.23;1.77;;;;;;;24.39;41.71;100662.75;4991256;28;20141;-91
2022/06/28 03:28:05;;;;;;;3.00;1.27;;;;;;;24.42;41.65;100665.53;4991061;28;20482;-90
2022/06/28 03:30:31;;;;;;;4.75;1.50;;;;;;;24.35;42.30;100657.97;4990839;28;20170;-91
2022/06/28 03:32:57;;;;;;;2.53;1.50;;;;;;;24.31;41.90;100653.59;4990890;28;20030;-92
2022/06/28 03:35:23;;;;;;;10.05;2.10;;;;;;;24.42;41.70;100659.16;4974878;28;20027;-90
2022/06/28 03:37:49;;;;;;;7.13;1.65;;;;;;;24.41;41.74;100657.53;4990756;28;20041;-89
2022/06/28 03:40:14;;;;;;;6.75;1.92;;;;;;;24.32;42.07;100658.78;4974238;28;20394;-89
2022/06/28 03:42:40;;;;;;;7.60;1.70;;;;;;;24.38;42.03;100647.19;4990638;28;20081;-91
2022/06/28 03:45:06;;;;;;;5.93;2.10;;;;;;;24.42;41.72;100645.97;4990833;28;20038;-91
2022/06/28 03:47:32;;;;;;;4.88;1.80;;;;;;;24.33;42.14;100646.44;4990742;28;20026;-89
2022/06/28 03:49:57;;;;;;;7.03;2.33;;;;;;;24.35;42.23;100651.59;4990629;28;20117;-90
2022/06/28 03:52:28;;;;;;;9.50;2.95;;;;;;;24.36;42.16;100647.59;4974315;28;20078;-89
2022/06/28 03:54:58;;;;;;;8.77;2.10;;;;;;;24.34;42.08;100647.22;4990783;28;20041;-90
2022/06/28 03:57:27;;;;;;;9.63;2.33;;;;;;;23.97;43.04;100647.81;4974611;28;20117;-90
2022/06/28 03:59:56;;;;;;;5.85;2.28;;;;;;;24.21;42.32;100632.13;4974202;28;20035;-91
2022/06/28 04:02:21;;;;;;;9.38;2.35;;;;;;;24.26;42.12;100634.50;4974427;28;20121;-92
2022/06/28 04:04:47;;;;;;;7.72;2.00;;;;;;;24.30;42.42;100633.25;4974293;28;20122;-89
2022/06/28 04:07:12;;;;;;;10.77;2.60;;;;;;;24.17;42.48;100631.34;4990794;28;20027;-88
2022/06/28 04:09:38;;;;;;;9.90;2.05;;;;;;;24.26;42.61;100626.13;4990609;28;20038;-90
2022/06/28 04:12:04;;;;;;;10.38;3.22;;;;;;;24.11;42.69;100631.00;4974054;28;20071;-90
2022/06/28 04:14:30;;;;;;;6.65;2.30;;;;;;;24.03;43.17;100635.00;4990508;28;20504;-87
2022/06/28 04:16:55;;;;;;;10.82;2.63;;;;;;;24.02;42.88;100627.84;4990658;28;20134;-92
2022/06/28 04:19:21;;;;;;;6.72;2.38;;;;;;;24.16;42.45;100621.38;4990535;28;20034;-93
2022/06/28 04:21:47;;;;;;;10.32;2.55;;;;;;;24.23;42.63;100622.13;4990371;28;20037;-89
2022/06/28 04:24:13;;;;;;;9.13;2.75;;;;;;;23.91;43.35;100613.16;4974175;28;20023;-92
2022/06/28 04:26:38;;;;;;;8.88;2.47;;;;;;;24.01;43.29;100595.56;4973726;28;20524;-88
2022/06/28 04:29:04;;;;;;;7.38;2.72;;;;;;;24.08;43.32;100595.50;4990313;28;20054;-89
2022/06/28 04:31:30;;;;;;;7.85;2.45;;;;;;;23.82;43.39;100582.94;4990176;28;20490;-89
2022/06/28 04:33:55;;;;;;;11.80;2.88;;;;;;;23.94;43.75;100581.63;4990342;28;20430;-90
2022/06/28 04:36:21;;;;;;;8.02;2.85;;;;;;;24.01;43.17;100585.19;4990285;28;20466;-92
2022/06/28 04:38:47;;;;;;;12.55;3.38;;;;;;;24.07;43.01;100577.97;4990209;28;20035;-89
2022/06/28 04:41:12;;;;;;;13.13;3.53;;;;;;;24.07;43.18;100574.38;4990274;28;20152;-89
2022/06/28 04:43:38;;;;;;;6.60;2.15;;;;;;;23.89;43.56;100565.34;4990047;28;20121;-90
2022/06/28 04:46:03;;;;;;;10.75;2.83;;;;;;;23.93;43.59;100560.53;4990248;28;20508;-87
2022/06/28 04:48:29;;;;;;;11.40;2.72;;;;;;;23.70;44.29;100556.28;4990111;28;20544;-88
2022/06/28 04:50:55;;;;;;;14.25;2.70;;;;;;;23.94;43.45;100543.38;4992674;28;20150;-90
2022/06/28 04:53:20;;;;;;;13.20;3.92;;;;;;;23.64;44.22;100549.53;4993830;28;20031;-88
2022/06/28 04:55:46;;;;;;;6.82;2.45;;;;;;;23.58;44.35;100542.78;4993863;28;20121;-90
2022/06/28 04:58:11;;;;;;;13.00;3.50;;;;;;;23.89;43.81;100551.41;4993430;28;20374;-89
2022/06/28 05:00:37;;;;;;;12.00;2.60;;;;;;;23.71;44.35;100541.13;4993445;28;20101;-89
2022/06/28 05:03:03;;;;;;;10.02;2.90;;;;;;;23.84;43.86;100535.88;4993573;28;20041;-88
2022/06/28 05:05:29;;;;;;;11.50;2.80;;;;;;;23.74;44.25;100537.53;4993614;28;20030;-89
2022/06/28 05:07:54;;;;;;;12.98;3.58;;;;;;;23.86;43.65;100532.66;4978139;28;20019;-87
2022/06/28 05:10:20;;;;;;;14.90;2.83;;;;;;;23.93;43.59;100541.78;4993230;28;20049;-90
2022/06/28 05:12:46;;;;;;;10.95;2.70;;;;;;;23.92;43.98;100531.03;4993766;28;20039;-89
2022/06/28 05:15:11;;;;;;;8.77;2.53;;;;;;;23.55;44.75;100518.47;4977353;28;20026;-87
2022/06/28 05:17:37;;;;;;;11.52;2.78;;;;;;;23.70;44.61;100514.44;4993397;28;20437;-91
2022/06/28 05:20:03;;;;;;;12.73;3.25;;;;;;;23.62;45.02;100518.47;4993287;28;20070;-90
2022/06/28 05:22:28;;;;;;;9.82;2.55;;;;;;;23.73;44.71;100515.63;4993321;28;20397;-89
2022/06/28 05:24:55;;;;;;;11.60;3.35;;;;;;;23.65;44.77;100500.13;4977028;28;20081;-90
2022/06/28 05:27:21;;;;;;;10.70;2.80;;;;;;;23.71;44.91;100499.28;4992846;28;20066;-87
2022/06/28 05:29:47;;;;;;;16.25;3.58;;;;;;;23.80;44.81;100509.97;4976422;28;20035;-89
2022/06/28 05:32:13;;;;;;;17.17;4.30;;;;;;;23.94;44.71;100506.31;4976991;28;20082;-92
2022/06/28 05:34:38;;;;;;;19.42;3.70;;;;;;;24.09;44.00;100503.00;4993302;28;20027;-86
2022/06/28 05:37:05;;;;;;;17.52;4.25;;;;;;;23.63;45.82;100505.31;4993304;28;20042;-92
2022/06/28 05:39:31;;;;;;;17.42;3.42;;;;;;;23.70;45.53;100497.69;4993025;28;20034;-89
2022/06/28 05:41:57;;;;;;;15.02;3.80;;;;;;;23.78;45.70;100487.28;4992825;28;20031;-88
2022/06/28 05:44:22;;;;;;;18.92;4.57;;;;;;;23.83;45.51;100472.13;4993035;28;20382;-90
2022/06/28 05:46:49;;;;;;;13.90;4.10;;;;;;;24.02;45.05;100479.94;4992632;28;20038;-91
2022/06/28 05:49:15;;;;;;;15.95;5.55;;;;;;;23.99;45.17;100477.97;4992757;28;20034;-93
2022/06/28 05:51:40;;;;;;;24.08;5.10;;;;;;;23.84;45.87;100490.44;4976378;28;20042;-89
2022/06/28 05:54:06;;;;;;;17.17;4.45;;;;;;;24.12;45.29;100481.84;4992767;28;20038;-90
2022/06/28 05:56:35;;;;;;;17.20;4.10;;;;;;;23.80;46.08;100485.69;4992590;28;20097;-91
2022/06/28 05:59:00;;;;;;;17.00;5.45;;;;;;;24.05;45.26;100479.91;4992791;28;20023;-92
2022/06/28 06:01:26;;;;;;;16.85;4.97;;;;;;;23.90;46.02;100460.91;4992006;28;20453;-94
2022/06/28 06:03:51;;;;;;;18.25;4.50;;;;;;;23.82;46.40;100470.53;4976760;28;20026;-92
2022/06/28 06:06:17;;;;;;;17.25;5.18;;;;;;;23.87;46.19;100472.88;4976718;28;20077;-91
2022/06/28 06:08:43;;;;;;;21.83;6.68;;;;;;;24.04;45.94;100456.00;4992554;28;20034;-93
2022/06/28 06:11:09;;;;;;;17.67;5.10;;;;;;;23.68;47.03;100472.22;4992448;28;20505;-91
2022/06/28 06:13:35;;;;;;;18.80;5.47;;;;;;;24.03;45.91;100453.59;4992569;28;20487;-93
2022/06/28 06:16:01;;;;;;;20.20;6.03;;;;;;;23.84;46.35;100460.53;4976427;28;20544;-93
2022/06/28 06:18:26;;;;;;;18.92;6.60;;;;;;;23.65;46.93;100467.44;4977429;28;20034;-94
2022/06/28 06:20:52;;;;;;;15.20;4.32;;;;;;;23.82;46.63;100454.59;4976987;28;20494;-90
2022/06/28 06:23:18;;;;;;;15.60;4.72;;;;;;;23.84;46.92;100457.75;4993255;28;20138;-95
2022/06/28 06:25:43;;;;;;;16.92;5.53;;;;;;;23.85;46.45;100450.97;4976179;28;20030;-89
2022/06/28 06:28:09;;;;;;;20.85;5.25;;;;;;;23.79;46.83;100455.38;4991995;28;20027;-89
2022/06/28 06:30:36;;;;;;;18.83;5.43;;;;;;;23.73;47.13;100451.47;4991739;28;20031;-95
2022/06/28 06:33:02;;;;;;;19.02;4.75;;;;;;;23.66;47.28;100445.94;4975739;28;20022;-93
2022/06/28 06:35:27;;;;;;;20.27;5.28;;;;;;;23.77;47.32;100447.44;4992186;28;20030;-90
2022/06/28 06:38:00;;;;;;;20.08;4.88;;;;;;;23.90;47.06;100436.59;4976993;28;20034;-89
2022/06/28 06:40:29;;;;;;;18.42;5.05;;;;;;;23.95;47.16;100429.75;4992581;28;20112;-96
2022/06/28 06:42:55;;;;;;;21.07;4.73;;;;;;;23.93;46.90;100426.59;4976463;28;20027;-91
2022/06/28 06:45:21;;;;;;;16.20;3.63;;;;;;;23.79;47.39;100422.72;4984949;28;20019;-93
2022/06/28 06:47:46;;;;;;;21.83;5.05;;;;;;;24.07;46.67;100426.47;4974940;28;20117;-93
2022/06/28 06:50:12;;;;;;;22.77;5.13;;;;;;;23.75;47.91;100407.22;4975927;28;20027;-90
2022/06/28 06:52:38;;;;;;;15.20;4.50;;;;;;;24.02;46.80;100419.31;4975697;28;20051;-91
2022/06/28 06:55:04;;;;;;;20.08;5.00;;;;;;;24.14;46.85;100429.19;4975814;28;20089;-88
2022/06/28 06:57:30;;;;;;;10.93;3.85;;;;;;;24.17;46.78;100428.34;4975714;28;20022;-90
2022/06/28 06:59:55;;;;;;;11.68;4.25;;;;;;;23.98;47.52;100424.16;4975302;28;20035;-90
2022/06/28 07:02:21;;;;;;;16.67;5.20;;;;;;;24.11;47.18;100434.78;4975618;28;20392;-93
2022/06/28 07:04:47;;;;;;;13.07;3.83;;;;;;;24.08;46.94;100430.84;4975240;28;20027;-90
2022/06/28 07:07:13;;;;;;;20.67;4.80;;;;;;;24.13;47.20;100433.19;4975445;28;20027;-92
2022/06/28 07:09:38;;;;;;;17.70;4.55;;;;;;;24.14;46.97;100434.78;4975773;28;20114;-92
2022/06/28 07:12:05;;;;;;;20.67;5.88;;;;;;;23.97;47.42;100444.09;4975566;28;20031;-94
2022/06/28 07:14:30;;;;;;;19.10;5.07;;;;;;;24.18;46.92;100429.16;4971548;28;20128;-90
2022/06/28 07:16:56;;;;;;;16.45;4.20;;;;;;;24.02;47.33;100435.28;4972359;28;20063;-94
2022/06/28 07:19:21;;;;;;;20.58;5.05;;;;;;;23.99;47.65;100433.31;4972113;28;20027;-89
2022/06/28 07:21:47;;;;;;;18.17;4.43;;;;;;;24.09;47.41;100440.78;4972088;28;20038;-91
2022/06/28 07:24:13;;;;;;;16.63;5.25;;;;;;;24.20;46.85;100430.34;4972444;28;20532;-93
2022/06/28 07:26:39;;;;;;;15.55;4.25;;;;;;;24.10;47.00;100420.06;4983407;28;20038;-94
2022/06/28 07:29:05;;;;;;;17.95;4.55;;;;;;;23.93;47.68;100424.59;4991055;28;20496;-91
2022/06/28 07:31:30;;;;;;;19.05;5.22;;;;;;;24.01;47.90;100430.91;4962287;28;21231;-91
2022/06/28 07:33:59;;;;;;;15.45;4.93;;;;;;;24.21;47.13;100423.56;4962763;28;20023;-91
2022/06/28 07:36:25;;;;;;;13.48;3.72;;;;;;;23.52;48.95;100422.50;4962565;28;20026;-90
2022/06/28 07:38:52;;;;;;;20.67;5.40;;;;;;;24.08;47.60;100428.84;4963475;28;20476;-90
2022/06/28 07:41:18;;;;;;;11.20;3.45;;;;;;;23.95;47.73;100432.53;4991243;28;20482;-93
2022/06/28 07:43:44;;;;;;;13.80;4.70;;;;;;;24.05;47.40;100420.53;4975039;28;20034;-93
2022/06/28 07:46:10;;;;;;;13.40;4.88;;;;;;;23.97;47.59;100424.56;4975145;28;20101;-91
2022/06/28 07:48:36;;;;;;;16.13;5.07;;;;;;;23.95;47.76;100418.59;4991292;28;20038;-93
2022/06/28 07:53:45;;;;;;;25.55;5.78;;;;;;;23.81;47.83;100413.94;4977107;28;20041;-93
2022/06/28 07:56:11;;;;;;;23.50;5.60;;;;;;;24.01;47.69;100406.59;4974771;28;20027;-90
2022/06/28 07:58:39;;;;;;;18.80;4.82;;;;;;;24.20;46.76;100401.63;4974592;28;20038;-89
2022/06/28 08:01:07;;;;;;;18.70;4.15;;;;;;;24.35;46.34;100403.09;4974989;28;20029;-91
2022/06/28 08:03:33;;;;;;;16.35;3.97;;;;;;;24.18;46.96;100390.06;4974907;28;20122;-92
2022/06/28 08:05:58;;;;;;;19.23;4.90;;;;;;;24.01;47.34;100392.63;4974169;28;20494;-92
2022/06/28 08:08:24;;;;;;;18.85;4.63;;;;;;;23.74;48.29;100398.06;4974445;28;20109;-92
2022/06/28 08:10:49;;;;;;;16.70;4.93;;;;;;;23.74;48.01;100394.47;4990381;28;20034;-91
2022/06/28 08:13:16;;;;;;;17.42;4.38;;;;;;;24.04;47.28;100397.41;4974124;28;20027;-90
2022/06/28 08:15:42;;;;;;;23.77;5.43;;;;;;;24.23;46.69;100401.59;5007070;28;20085;-91
2022/06/28 08:18:09;;;;;;;14.30;3.70;;;;;;;23.97;47.58;100388.31;5006647;28;20046;-92
2022/06/28 08:20:34;;;;;;;24.50;4.90;;;;;;;24.04;47.42;100394.59;4976112;28;20037;-88
2022/06/28 08:23:00;;;;;;;17.45;4.28;;;;;;;24.06;47.43;100392.19;4969751;28;20027;-92
2022/06/28 08:25:26;;;;;;;17.50;4.43;;;;;;;23.89;47.59;100387.56;4971917;28;20075;-90
2022/06/28 08:27:51;;;;;;;18.70;3.95;;;;;;;24.01;47.78;100384.25;4978090;28;20058;-90
2022/06/28 08:30:17;;;;;;;16.30;4.03;;;;;;;24.18;46.90;100376.13;4977740;28;20070;-90
2022/06/28 08:32:42;;;;;;;13.18;3.90;;;;;;;23.93;47.86;100379.94;4978257;28;20038;-93
2022/06/28 08:35:08;;;;;;;15.20;3.85;;;;;;;24.29;46.90;100372.03;4978521;28;20121;-89
2022/06/28 08:37:34;;;;;;;14.68;3.78;;;;;;;24.33;47.00;100375.59;4994796;28;20027;-95
2022/06/28 08:39:59;;;;;;;11.90;3.75;;;;;;;24.15;47.29;100371.38;4978208;28;20089;-94
2022/06/28 08:42:27;;;;;;;16.90;3.95;;;;;;;24.27;47.34;100351.31;4978098;28;20023;-91
2022/06/28 08:44:58;;;;;;;16.27;3.88;;;;;;;24.25;47.46;100359.28;4978196;28;20026;-91
2022/06/28 08:47:25;;;;;;;14.75;3.40;;;;;;;23.93;48.66;100363.22;4979311;28;20030;-89
2022/06/28 08:49:56;;;;;;;14.20;3.90;;;;;;;24.27;47.58;100354.91;4977698;28;20031;-89
2022/06/28 08:52:23;;;;;;;17.10;4.45;;;;;;;24.29;47.71;100349.69;4979197;28;20042;-92
2022/06/28 08:54:53;;;;;;;22.15;4.72;;;;;;;24.42;47.43;100354.78;4977792;28;20018;-90
2022/06/28 08:57:20;;;;;;;24.50;5.18;;;;;;;24.77;46.40;100345.94;4978028;28;20118;-89
2022/06/28 08:59:47;;;;;;;17.65;4.15;;;;;;;24.39;47.80;100350.00;4977957;28;20034;-89
2022/06/28 09:02:14;;;;;;;17.83;4.28;;;;;;;24.61;47.18;100342.94;4978817;28;20031;-90
2022/06/28 09:04:47;;;;;;;16.45;3.92;;;;;;;24.20;48.62;100332.66;4978160;28;20031;-88
2022/06/28 09:07:14;;;;;;;18.88;4.28;;;;;;;24.37;48.03;100321.72;4977788;28;20022;-89
2022/06/28 09:09:39;;;;;;;14.23;3.88;;;;;;;24.50;47.95;100325.56;4977876;28;20114;-91
2022/06/28 09:12:06;;;;;;;12.15;3.67;;;;;;;24.66;47.69;100327.75;4977742;28;20110;-90
2022/06/28 09:14:33;;;;;;;21.27;5.43;;;;;;;24.76;47.69;100322.00;4977923;28;20119;-91
2022/06/28 09:17:23;;;;;;;22.73;5.25;;;;;;;24.47;48.89;100323.56;4977619;28;20478;-91
2022/06/28 09:19:52;;;;;;;;;;;;;;;24.75;47.92;100314.84;4978416;28;20035;-90
2022/06/28 09:22:38;;;;;;;18.85;4.85;;;;;;;24.88;47.48;100307.47;4978420;28;20369;-93
2022/06/28 09:25:23;;;;;;;14.02;4.03;;;;;;;24.88;47.72;100307.47;4978706;28;20037;-90
2022/06/28 09:27:49;;;;;;;16.35;4.22;;;;;;;24.77;47.74;100309.59;4977510;28;20047;-89
2022/06/28 09:30:14;;;;;;;22.17;4.93;;;;;;;24.78;47.80;100302.00;4977118;28;20114;-89
2022/06/28 09:32:40;;;;;;;17.50;4.47;;;;;;;24.89;47.96;100313.84;4977068;28;20027;-90
2022/06/28 09:35:09;;;;;;;12.75;4.22;;;;;;;25.32;46.93;100296.47;4968803;28;20038;-92
2022/06/28 09:37:50;;;;;;;14.75;3.78;;;;;;;25.08;47.34;100292.81;4974527;28;20029;-89
2022/06/28 09:40:25;;;;;;;11.75;3.42;;;;;;;25.24;47.61;100284.59;4977082;28;20031;-90
2022/06/28 09:43:14;;;;;;;17.85;3.47;;;;;;;25.30;47.62;100276.50;4976885;28;20023;-91
2022/06/28 09:45:50;;;;;;;11.43;3.67;;;;;;;25.56;46.67;100292.44;4977053;28;20026;-91
2022/06/28 09:48:17;;;;;;;13.35;3.90;;;;;;;25.46;46.88;100291.41;4976816;28;20030;-90
2022/06/28 09:50:42;;;;;;;12.05;3.03;;;;;;;25.47;47.09;100289.41;4976954;28;20019;-90
2022/06/28 09:53:15;;;;;;;13.35;3.53;;;;;;;25.25;47.87;100291.78;4976877;28;20026;-91
2022/06/28 09:55:42;;;;;;;10.50;4.25;;;;;;;25.55;46.83;100293.66;4976727;28;20027;-89
2022/06/28 09:58:09;;;;;;;10.75;3.88;;;;;;;25.25;47.56;100283.38;4976622;28;20393;-90
2022/06/28 10:00:39;;;;;;;12.43;4.72;;;;;;;25.73;46.86;100288.56;4976445;28;20540;-90
2022/06/28 10:03:06;;;;;;;13.30;4.30;;;;;;;25.58;47.21;100286.44;4976407;28;20458;-89
2022/06/28 10:05:32;;;;;;;15.82;4.70;;;;;;;25.87;46.66;100298.72;4976385;28;20694;-91
2022/06/28 10:07:58;;;;;;;16.63;5.88;;;;;;;26.08;46.53;100294.72;4976157;28;20030;-91
2022/06/28 10:10:24;;;;;;;17.33;4.40;;;;;;;26.04;47.11;100296.00;4976341;28;20031;-91
2022/06/28 10:15:48;;;;;;;15.10;4.18;;;;;;;25.86;47.12;100290.75;4976155;28;20062;-94
2022/06/28 10:18:19;;;;;;;14.50;6.25;;;;;;;26.20;46.10;100296.88;4976290;28;20027;-89
2022/06/28 10:20:46;;;;;;;11.98;5.13;;;;;;;26.08;46.43;100296.75;4976181;28;20060;-90
2022/06/28 10:23:23;;;;;;;14.98;4.47;;;;;;;25.81;46.75;100292.03;4976185;28;20037;-92
2022/06/28 10:26:04;;;;;;;13.75;5.25;;;;;;;25.98;46.34;100290.09;4975788;28;20477;-89
2022/06/28 10:29:03;;;;;;;8.40;3.75;;;;;;;25.55;47.09;100304.06;4975309;28;20034;-90
2022/06/28 10:31:30;;;;;;;8.70;3.45;;;;;;;25.73;46.85;100296.19;4956402;29;20067;-90
2022/06/28 10:34:01;;;;;;;13.20;4.63;;;;;;;25.84;46.48;100287.56;4972754;28;20035;-91
2022/06/28 10:36:33;;;;;;;9.85;4.03;;;;;;;26.37;45.38;100291.34;4956632;28;20482;-89
2022/06/28 10:39:08;;;;;;;15.27;4.60;;;;;;;26.44;45.66;100292.00;4956531;28;20031;-89
2022/06/28 10:42:04;;;;;;;14.20;4.15;;;;;;;26.52;46.17;100264.63;4972492;28;20035;-92
2022/06/28 10:44:32;;;;;;;9.02;4.40;;;;;;;26.47;45.98;100274.34;4956579;29;20043;-90
2022/06/28 10:47:01;;;;;;;9.88;5.65;;;;;;;25.98;47.27;100304.88;4972863;28;20031;-91
2022/06/28 10:49:49;;;;;;;9.48;4.93;;;;;;;26.10;47.21;100274.69;4960240;28;20481;-90
2022/06/28 10:52:35;;;;;;;7.55;4.43;;;;;;;26.23;46.54;100284.03;4975461;28;20034;-90
2022/06/28 10:55:19;;;;;;;5.32;2.20;;;;;;;26.12;46.94;100284.22;4977323;28;20474;-90
2022/06/28 10:57:45;;;;;;;14.60;6.90;;;;;;;26.62;46.25;100274.03;4975961;28;20401;-91
2022/06/28 11:00:20;;;;;;;8.73;3.80;;;;;;;26.48;46.67;100280.75;4975324;28;20031;-91
2022/06/28 11:02:58;;;;;;;7.32;3.58;;;;;;;26.66;45.71;100277.53;4975506;28;20035;-90
2022/06/28 11:05:45;;;;;;;8.75;2.80;;;;;;;26.78;45.65;100265.66;4975685;28;20038;-92
2022/06/28 11:08:11;;;;;;;8.38;3.30;;;;;;;26.67;45.64;100265.88;4975469;28;20050;-90
2022/06/28 11:11:01;;;;;;;6.95;3.70;;;;;;;26.67;45.36;100281.91;4975182;28;20035;-90
2022/06/28 11:13:27;;;;;;;10.27;2.78;;;;;;;26.61;45.49;100289.28;4975431;28;20093;-90
2022/06/28 11:15:52;;;;;;;9.75;3.22;;;;;;;26.51;45.06;100275.03;4975278;28;20035;-89
2022/06/28 11:18:23;;;;;;;15.30;3.78;;;;;;;26.55;45.01;100281.38;4975455;28;20093;-91
2022/06/28 11:20:50;;;;;;;4.40;1.50;;;;;;;26.22;45.37;100272.03;4974969;28;20078;-90
2022/06/28 11:23:30;;;;;;;4.55;1.60;;;;;;;26.18;44.81;100276.13;4975261;28;20023;-89
2022/06/28 11:28:57;;;;;;;6.35;2.00;;;;;;;26.02;44.29;100276.84;4976140;28;20112;-90
2022/06/28 11:31:28;;;;;;;3.78;1.25;;;;;;;25.94;44.75;100279.00;4975215;28;20146;-90
2022/06/28 11:33:54;;;;;;;1.50;1.17;;;;;;;25.98;44.26;100274.09;4975249;28;20393;-89
2022/06/28 11:36:24;;;;;;;3.42;1.33;;;;;;;25.83;44.50;100260.81;4974891;28;20029;-90
2022/06/28 11:38:49;;;;;;;;;;;;;;;25.82;44.37;100250.84;4975050;28;20093;-90